Aeroporto :
LOGIN :

Iscrizione | Disclaimer

   EN    FR    IT 

 










Sommario :    VFR   VFR Marginale   IFR   IFR Intensivo   IFR Molto Intensivo
Visibilità : 
Base nubi : 
>= 8 km
>= 3000ft
5 / 8 km
1000 / 3000 ft
1500m / 5 km
500 / 1000 ft
800 / 1500m
200 / 500 ft
< 800m
< 200 ft
Simboli :   Temporali  Nebbia  Neve Forte  Precipitazioni Forti  Vento > 20 kt
SIGMETs :   Varie  Temporali  Ghiacco  Turbolenza  Onda orograficha  Ceneri Vulcaniche






- Altitudine del aeroporto : 622 ft
- Codice IATA : BRS


EGGD - Bristol Int.

ULTIMO METAR :
  • 240920Z AUTO 03009KT 360V100 9999 SCT021 09/04 Q1018

METARs OBSOLETI :
  • 240850Z AUTO 36007KT 320V040 9999 NCD 08/03 Q1018
  • 240820Z AUTO 36008KT 9999 NCD 08/04 Q1018
  • 240750Z AUTO 34007KT 9999 NCD 08/04 Q1018
  • 240720Z AUTO 32003KT 290V360 9999 NCD 07/05 Q1018
  • 240650Z AUTO 31003KT 270V330 9999 NCD 07/05 Q1018
  • 240620Z AUTO VRB02KT 9999 NCD 06/04 Q1018
  • 240550Z AUTO 29003KT 9999 NCD 06/05 Q1018
  • 240520Z AUTO 33004KT 9999 NCD 05/04 Q1018
  • 240450Z AUTO 28006KT 9999 BKN049 05/03 Q1019

TAF TAF EGGD
Valido dal 24 a 06 ore il 25 a 06 ore UTC


240457Z 2406/2506 VRB03KT 9999 SCT040
BECMG 2407/2410 03010KT
PROB30
TEMPO 2407/2410 8000 -RA BKN012
BECMG 2415/2418 27006KT
ATIS : +44 1275 473 666



MetMap, La meteo Aeronautica in un colpo d'occhio ! - Copyright ORBIFLY Dicembre 2007 - Disclaimer

ORBIFLY MET'MAP TEAM :

Programmazione e sviluppo : Alexandra Zaïnal
Concezione : Baudouin d'Aumeries
Supporto tecnico e logistico : Manuel Goepfert
Aiuto : Marc-Olivier Méhu
Aiuto per la traduzione : Arnaldo La Scala




FONTI E CREDITI :

   NOAA